Time,TemperatureF,DewpointF,PressureIn,WindDirection,WindDirectionDegrees,WindSpeedMPH,WindSpeedGustMPH,Humidity,HourlyPrecipIn,Conditions,Clouds,dailyrainin,SoftwareType,DateUTC
2013-03-05 00:29:00,54.4,16.3,29.81,NNW,329,1.0,13.0,22,0.00,CLR,,0.00,WeatherDisplay:10.37,2013-03-05 06:29:00,
2013-03-05 00:59:00,53.2,16.3,29.85,SW,218,0.0,8.0,23,0.00,CLR,,0.00,WeatherDisplay:10.37,2013-03-05 06:59:00,
2013-03-05 01:29:00,52.8,16.0,29.87,WNW,286,0.0,8.0,23,0.00,CLR,,0.00,WeatherDisplay:10.37,2013-03-05 07:29:00,
2013-03-05 01:59:00,52.3,14.5,29.88,NNW,329,2.0,10.0,22,0.00,CLR,,0.00,WeatherDisplay:10.37,2013-03-05 07:59:00,
2013-03-05 02:29:00,51.6,13.9,29.89,SE,128,1.0,6.0,22,0.00,CLR,,0.00,WeatherDisplay:10.37,2013-03-05 08:29:00,
2013-03-05 02:59:00,49.5,14.1,29.91,SE,124,0.0,6.0,24,0.00,CLR,,0.00,WeatherDisplay:10.37,2013-03-05 08:59:00,
2013-03-05 03:28:00,45.8,28.7,29.96,NE,34,6.0,18.0,51,0.00,CLR,,0.00,WeatherDisplay:10.37,2013-03-05 09:28:00,
2013-03-05 03:58:00,41.9,31.0,29.99,ENE,70,3.0,17.0,65,0.00,CLR,,0.00,WeatherDisplay:10.37,2013-03-05 09:58:00,
2013-03-05 04:28:00,39.7,30.4,30.01,NE,35,3.0,13.0,69,0.00,CLR,,0.00,WeatherDisplay:10.37,2013-03-05 10:28:00,
2013-03-05 04:58:00,36.8,28.9,30.05,NE,42,3.0,13.0,73,0.00,CLR,,0.00,WeatherDisplay:10.37,2013-03-05 10:58:00,
2013-03-05 05:28:00,33.5,26.1,30.10,NE,37,3.0,8.0,74,0.00,CLR,,0.00,WeatherDisplay:10.37,2013-03-05 11:28:00,
2013-03-05 05:58:00,32.0,25.6,30.13,ENE,63,5.0,8.0,77,0.00,CLR,,0.00,WeatherDisplay:10.37,2013-03-05 11:58:00,
2013-03-05 06:28:00,31.2,25.4,30.17,East,82,5.0,12.0,79,0.00,CLR,,0.00,WeatherDisplay:10.37,2013-03-05 12:28:00,
2013-03-05 06:59:00,30.9,25.5,30.17,East,80,6.0,16.0,80,0.00,CLR,,0.00,WeatherDisplay:10.37,2013-03-05 12:59:00,
2013-03-05 07:29:00,30.7,25.6,30.19,ENE,76,5.0,12.0,81,0.00,CLR,,0.00,WeatherDisplay:10.37,2013-03-05 13:29:00,
2013-03-05 07:58:00,30.7,25.6,30.20,NE,55,2.0,12.0,81,0.00,CLR,,0.00,WeatherDisplay:10.37,2013-03-05 13:58:00,
2013-03-05 08:29:00,30.7,25.3,30.22,NE,56,3.0,10.0,80,0.00,CLR,,0.00,WeatherDisplay:10.37,2013-03-05 14:29:00,
2013-03-05 08:59:00,30.7,25.3,30.23,NE,40,6.0,10.0,80,0.00,CLR,,0.00,WeatherDisplay:10.37,2013-03-05 14:59:00,
2013-03-05 09:29:00,31.8,25.1,30.24,ENE,57,3.0,8.0,76,0.00,CLR,,0.00,WeatherDisplay:10.37,2013-03-05 15:29:00,
2013-03-05 09:59:00,35.5,25.6,30.22,NE,45,0.0,6.0,67,0.00,CLR,,0.00,WeatherDisplay:10.37,2013-03-05 15:59:00,
2013-03-05 10:29:00,38.2,25.1,30.22,ENE,61,5.0,9.0,59,0.00,CLR,,0.00,WeatherDisplay:10.37,2013-03-05 16:29:00,
2013-03-05 10:59:00,40.8,24.1,30.20,SE,134,5.0,12.0,51,0.00,CLR,,0.00,WeatherDisplay:10.37,2013-03-05 16:59:00,
2013-03-05 11:29:00,42.9,24.0,30.21,East,83,3.0,10.0,47,0.00,CLR,,0.00,WeatherDisplay:10.37,2013-03-05 17:29:00,
2013-03-05 11:59:00,44.9,22.6,30.19,SSE,152,6.0,12.0,41,0.00,CLR,,0.00,WeatherDisplay:10.37,2013-03-05 17:59:00,
2013-03-05 12:29:00,45.2,22.9,30.20,SSE,155,7.0,13.0,41,0.00,CLR,,0.00,WeatherDisplay:10.37,2013-03-05 18:29:00,
2013-03-05 12:59:00,47.7,22.7,30.18,SE,138,6.0,16.0,37,0.00,CLR,,0.00,WeatherDisplay:10.37,2013-03-05 18:59:00,
2013-03-05 13:29:00,48.6,21.5,30.16,ESE,122,6.0,12.0,34,0.00,CLR,,0.00,WeatherDisplay:10.37,2013-03-05 19:29:00,
2013-03-05 13:59:00,49.6,20.9,30.14,SSE,154,8.0,12.0,32,0.00,CLR,,0.00,WeatherDisplay:10.37,2013-03-05 19:59:00,
2013-03-05 14:29:00,51.0,19.8,30.16,SE,131,8.0,13.0,29,0.00,CLR,,0.00,WeatherDisplay:10.37,2013-03-05 20:29:00,
2013-03-05 14:59:00,51.4,19.3,30.16,SE,139,6.0,13.0,28,0.00,CLR,,0.00,WeatherDisplay:10.37,2013-03-05 20:59:00,
2013-03-05 15:29:00,51.8,19.7,30.19,SE,133,10.0,16.0,28,0.00,CLR,,0.00,WeatherDisplay:10.37,2013-03-05 21:29:00,
2013-03-05 15:59:00,51.7,19.6,30.18,SSE,163,7.0,20.0,28,0.00,CLR,,0.00,WeatherDisplay:10.37,2013-03-05 21:59:00,
2013-03-05 16:29:00,51.0,19.0,30.21,SSE,158,7.0,13.0,28,0.00,CLR,,0.00,WeatherDisplay:10.37,2013-03-05 22:29:00,
2013-03-05 16:59:00,51.4,18.5,30.20,SE,141,2.0,16.0,27,0.00,CLR,,0.00,WeatherDisplay:10.37,2013-03-05 22:59:00,
2013-03-05 17:29:00,50.4,18.4,30.23,SE,124,8.0,14.0,28,0.00,CLR,,0.00,WeatherDisplay:10.37,2013-03-05 23:29:00,
2013-03-05 17:59:00,48.0,18.8,30.25,SSE,153,6.0,16.0,31,0.00,CLR,,0.00,WeatherDisplay:10.37,2013-03-05 23:59:00,
2013-03-05 18:29:00,46.6,19.0,30.27,SE,127,3.0,12.0,33,0.00,CLR,,0.00,WeatherDisplay:10.37,2013-03-06 00:29:00,
2013-03-05 18:59:00,44.8,19.4,30.29,South,180,0.0,10.0,36,0.00,CLR,,0.00,WeatherDisplay:10.37,2013-03-06 00:59:00,
2013-03-05 19:29:00,43.2,19.3,30.30,ENE,59,0.0,8.0,38,0.00,CLR,,0.00,WeatherDisplay:10.37,2013-03-06 01:29:00,
2013-03-05 19:59:00,42.2,20.2,30.31,NNW,339,0.0,6.0,41,0.00,CLR,,0.00,WeatherDisplay:10.37,2013-03-06 01:59:00,
2013-03-05 20:29:00,40.2,19.5,30.33,SSW,209,1.0,8.0,43,0.00,CLR,,0.00,WeatherDisplay:10.37,2013-03-06 02:29:00,
2013-03-05 20:59:00,40.8,20.5,30.31,SE,146,5.0,16.0,44,0.00,CLR,,0.00,WeatherDisplay:10.37,2013-03-06 02:59:00,
2013-03-05 21:29:00,40.8,20.0,30.27,SSE,150,5.0,12.0,43,0.00,CLR,,0.00,WeatherDisplay:10.37,2013-03-06 03:29:00,
2013-03-05 21:59:00,39.9,20.3,30.30,SSE,160,2.0,8.0,45,0.00,CLR,,0.00,WeatherDisplay:10.37,2013-03-06 03:59:00,
2013-03-05 22:29:00,38.0,20.0,30.27,South,187,0.0,10.0,48,0.00,CLR,,0.00,WeatherDisplay:10.37,2013-03-06 04:29:00,
2013-03-05 22:59:00,39.6,20.5,30.25,ENE,70,2.0,10.0,46,0.00,CLR,,0.00,WeatherDisplay:10.37,2013-03-06 04:59:00,
2013-03-05 23:29:00,37.1,19.2,30.26,ENE,69,0.0,3.0,48,0.00,CLR,,0.00,WeatherDisplay:10.37,2013-03-06 05:29:00,
2013-03-05 23:59:00,35.0,19.1,30.27,ENE,66,0.0,5.0,52,0.00,CLR,,0.00,WeatherDisplay:10.37,2013-03-06 05:59:00,